createdAt,value
2022-08-22T00:00:16.888Z,97342.75
2022-08-22T00:02:45.628Z,97313.59
2022-08-22T00:02:45.810Z,97305.06
2022-08-22T00:02:53.535Z,97288.66
2022-08-22T00:03:04.818Z,97315.38
2022-08-22T00:03:15.595Z,97345.31
2022-08-22T00:05:37.668Z,97348.78
2022-08-22T00:08:09.281Z,97347.03
2022-08-22T00:10:44.560Z,97339.31
2022-08-22T00:13:22.664Z,97331.47
2022-08-22T00:15:57.829Z,97334.91
2022-08-22T00:19:02.039Z,97337.59
2022-08-22T00:21:36.228Z,97341.88
2022-08-22T00:24:33.900Z,97344.44
2022-08-22T00:27:18.128Z,97345.31
2022-08-22T00:29:49.276Z,97351.34
2022-08-22T00:32:20.556Z,97347.91
2022-08-22T00:34:58.772Z,97345.31
2022-08-22T00:37:30.860Z,97348.75
2022-08-22T00:40:22.987Z,97346.19
2022-08-22T00:43:23.565Z,97342.75
2022-08-22T00:46:13.336Z,97336.72
2022-08-22T00:49:13.746Z,97340.16
2022-08-22T00:51:55.989Z,97330.63
2022-08-22T00:54:34.604Z,97345.31
2022-08-22T00:57:29.154Z,97339.28
2022-08-22T01:00:13.468Z,97340.16
2022-08-22T01:02:55.151Z,97335.03
2022-08-22T01:05:40.525Z,97335.03
2022-08-22T01:08:30.213Z,97335.03
2022-08-22T01:11:12.068Z,97343.59
2022-08-22T01:14:12.030Z,97346.19
2022-08-22T01:17:00.784Z,97346.19
2022-08-22T01:20:05.600Z,97348.75
2022-08-22T01:22:59.656Z,97338.44
2022-08-22T01:25:44.983Z,97345.31
2022-08-22T01:28:32.281Z,97338.41
2022-08-22T01:31:11.232Z,97347.00
2022-08-22T01:34:02.617Z,97349.56
2022-08-22T01:37:01.635Z,97341.84
2022-08-22T01:40:00.599Z,97347.88
2022-08-22T01:42:29.851Z,97349.59
2022-08-22T01:45:31.374Z,97367.56
2022-08-22T01:48:09.519Z,97344.44
2022-08-22T01:51:02.696Z,97350.44
2022-08-22T01:53:51.788Z,97343.59
2022-08-22T01:56:19.932Z,97341.84
2022-08-22T01:59:11.005Z,97344.44
2022-08-22T02:02:01.020Z,97343.59
2022-08-22T02:05:02.956Z,97350.44
2022-08-22T02:07:49.232Z,97348.75
2022-08-22T02:10:18.144Z,97348.75
2022-08-22T02:13:05.200Z,97348.75
2022-08-22T02:15:41.067Z,97349.56
2022-08-22T02:18:14.584Z,97349.56
2022-08-22T02:21:04.096Z,97343.56
2022-08-22T02:23:52.353Z,97348.75
2022-08-22T02:26:37.445Z,97348.75
2022-08-22T02:29:11.159Z,97348.75
2022-08-22T02:31:49.277Z,97351.31
2022-08-22T02:34:34.105Z,97348.75
2022-08-22T02:37:21.875Z,97351.31
2022-08-22T02:40:10.060Z,97351.31
2022-08-22T02:42:44.170Z,97336.56
2022-08-22T02:45:25.057Z,97352.16
2022-08-22T02:48:14.697Z,97353.00
2022-08-22T02:50:47.722Z,97344.44
2022-08-22T02:53:45.808Z,97353.00
2022-08-22T02:56:28.368Z,97350.44
2022-08-22T02:59:19.756Z,97349.56
2022-08-22T03:01:46.404Z,97351.31
2022-08-22T03:04:30.152Z,97348.75
2022-08-22T03:07:20.147Z,97336.66
2022-08-22T03:10:23.020Z,97343.59
2022-08-22T03:13:24.777Z,97346.16
2022-08-22T03:16:13.632Z,97352.16
2022-08-22T03:19:02.233Z,97345.28
2022-08-22T03:22:06.230Z,97347.00
2022-08-22T03:25:04.820Z,97342.69
2022-08-22T03:27:50.860Z,97347.88
2022-08-22T03:30:30.609Z,97341.00
2022-08-22T03:33:13.349Z,97347.00
2022-08-22T03:35:45.891Z,97345.28
2022-08-22T03:38:33.972Z,97346.16
2022-08-22T03:41:23.320Z,97345.28
2022-08-22T03:44:08.073Z,97341.00
2022-08-22T03:47:00.509Z,97349.56
2022-08-22T03:49:45.696Z,97346.16
2022-08-22T03:52:33.953Z,97351.28
2022-08-22T03:55:19.124Z,97348.72
2022-08-22T03:58:04.485Z,97357.28
2022-08-22T04:00:52.871Z,97353.88
2022-08-22T04:03:41.977Z,97365.88
2022-08-22T04:06:25.845Z,97362.44
2022-08-22T04:09:04.845Z,97359.84
2022-08-22T04:12:13.485Z,97360.72
2022-08-22T04:15:17.361Z,97362.44
2022-08-22T04:18:22.494Z,97365.00
2022-08-22T04:20:53.135Z,97367.56
2022-08-22T04:23:48.757Z,97375.28
2022-08-22T04:26:22.884Z,97371.88
2022-08-22T04:28:53.933Z,97371.84
2022-08-22T04:31:28.932Z,97337.22
2022-08-22T04:34:07.076Z,97384.75
2022-08-22T04:36:50.103Z,97377.03
2022-08-22T04:39:19.420Z,97389.03
2022-08-22T04:41:51.847Z,97384.75
2022-08-22T04:44:36.827Z,97378.72
2022-08-22T04:47:14.793Z,97336.34
2022-08-22T04:49:58.248Z,97385.53
2022-08-22T04:52:31.944Z,97381.22
2022-08-22T04:55:26.403Z,97385.47
2022-08-22T04:58:20.859Z,97392.34
2022-08-22T05:01:16.594Z,97396.59
2022-08-22T05:03:53.625Z,97391.44
2022-08-22T05:06:21.460Z,97397.41
2022-08-22T05:08:48.460Z,97360.31
2022-08-22T05:11:22.607Z,97360.22
2022-08-22T05:13:58.428Z,97392.22
2022-08-22T05:16:30.472Z,97401.63
2022-08-22T05:19:02.971Z,97387.75
2022-08-22T05:21:32.527Z,97365.38
2022-08-22T05:24:03.086Z,97393.88
2022-08-22T05:26:29.658Z,97364.47
2022-08-22T05:29:00.036Z,97368.78
2022-08-22T05:31:29.183Z,97367.94
2022-08-22T05:34:04.548Z,97361.91
2022-08-22T05:36:34.241Z,97392.84
2022-08-22T05:39:10.248Z,97369.63
2022-08-22T05:41:37.939Z,97401.59
2022-08-22T05:44:06.681Z,97408.44
2022-08-22T05:46:46.976Z,97411.03
2022-08-22T05:49:38.898Z,97417.91
2022-08-22T05:52:25.695Z,97376.47
2022-08-22T05:55:02.422Z,97406.69
2022-08-22T05:57:31.145Z,97400.66
2022-08-22T06:00:11.072Z,97383.38
2022-08-22T06:02:57.201Z,97407.59
2022-08-22T06:05:26.623Z,97401.53
2022-08-22T06:07:55.611Z,97413.59
2022-08-22T06:10:48.126Z,97411.91
2022-08-22T06:13:40.145Z,97407.63
2022-08-22T06:16:22.672Z,97409.31
2022-08-22T06:18:49.801Z,97411.91
2022-08-22T06:21:38.613Z,97408.47
2022-08-22T06:24:08.647Z,97410.22
2022-08-22T06:26:39.501Z,97414.50
2022-08-22T06:29:07.210Z,97422.22
2022-08-22T06:31:41.621Z,97419.66
2022-08-22T06:34:13.767Z,97424.81
2022-08-22T06:36:41.726Z,97425.69
2022-08-22T06:39:20.361Z,97429.09
2022-08-22T06:41:55.064Z,97402.34
2022-08-22T06:44:26.340Z,97419.63
2022-08-22T06:46:54.428Z,97420.50
2022-08-22T06:49:21.893Z,97430.88
2022-08-22T06:51:48.481Z,97433.47
2022-08-22T06:54:18.232Z,97425.75
2022-08-22T06:56:46.281Z,97403.19
2022-08-22T06:59:14.833Z,97424.03
2022-08-22T07:02:04.302Z,97428.34
2022-08-22T07:04:30.929Z,97430.03
2022-08-22T07:06:58.752Z,97430.03
2022-08-22T07:09:29.266Z,97427.50
2022-08-22T07:11:57.257Z,97388.59
2022-08-22T07:14:35.397Z,97423.19
2022-08-22T07:17:04.404Z,97432.63
2022-08-22T07:19:35.227Z,97427.50
2022-08-22T07:22:14.673Z,97424.91
2022-08-22T07:24:48.660Z,97423.22
2022-08-22T07:27:30.877Z,97422.34
2022-08-22T07:30:04.054Z,97425.78
2022-08-22T07:32:43.032Z,97407.63
2022-08-22T07:35:35.768Z,97428.38
2022-08-22T07:38:18.348Z,97422.34
2022-08-22T07:40:53.900Z,97418.91
2022-08-22T07:43:38.100Z,97418.91
2022-08-22T07:46:13.783Z,97420.66
2022-08-22T07:49:08.617Z,97420.66
2022-08-22T07:51:50.771Z,97417.19
2022-08-22T07:54:27.046Z,97380.84
2022-08-22T07:56:57.724Z,97420.66
2022-08-22T07:59:24.412Z,97420.66
2022-08-22T08:01:53.477Z,97410.34
2022-08-22T08:04:23.296Z,97419.78
2022-08-22T08:06:52.681Z,97177.88
2022-08-22T08:09:19.688Z,97417.19
2022-08-22T08:11:46.229Z,97418.06
2022-08-22T08:14:14.216Z,97389.53
2022-08-22T08:16:49.580Z,97424.06
2022-08-22T08:19:16.575Z,97428.34
2022-08-22T08:21:54.788Z,97417.22
2022-08-22T08:24:36.292Z,97406.81
2022-08-22T08:27:31.753Z,97422.34
2022-08-22T08:30:01.923Z,97379.22
2022-08-22T08:32:31.465Z,97392.91
2022-08-22T08:34:58.032Z,97411.19
2022-08-22T08:37:33.317Z,97394.75
2022-08-22T08:40:00.212Z,97418.91
2022-08-22T08:42:29.375Z,97418.91
2022-08-22T08:45:04.713Z,97419.78
2022-08-22T08:47:50.204Z,97383.59
2022-08-22T08:50:29.985Z,97413.78
2022-08-22T08:53:31.915Z,97408.63
2022-08-22T08:56:32.887Z,97373.19
2022-08-22T08:59:10.351Z,97411.19
2022-08-22T09:02:02.676Z,97410.34
2022-08-22T09:04:33.922Z,97409.50
2022-08-22T09:07:01.446Z,97402.63
2022-08-22T09:09:59.408Z,97407.81
2022-08-22T09:12:57.110Z,97410.38
2022-08-22T09:16:09.933Z,97406.06
2022-08-22T09:18:53.832Z,97405.22
2022-08-22T09:21:44.747Z,97412.06
2022-08-22T09:24:29.939Z,97409.53
2022-08-22T09:26:58.384Z,97405.28
2022-08-22T09:29:55.515Z,97403.56
2022-08-22T09:32:54.662Z,97401.75
2022-08-22T09:35:32.897Z,97410.44
2022-08-22T09:38:31.892Z,97405.31
2022-08-22T09:41:25.637Z,97411.31
2022-08-22T09:44:21.197Z,97413.03
2022-08-22T09:47:09.685Z,97401.00
2022-08-22T09:49:51.820Z,97308.47
2022-08-22T09:52:40.164Z,97418.19
2022-08-22T09:55:27.885Z,97424.19
2022-08-22T09:58:03.400Z,97418.19
2022-08-22T10:00:40.758Z,97421.63
2022-08-22T10:03:19.576Z,97417.34
2022-08-22T10:05:55.634Z,97419.91
2022-08-22T10:08:45.999Z,97409.63
2022-08-22T10:11:23.769Z,97404.34
2022-08-22T10:14:11.205Z,97431.94
2022-08-22T10:17:07.322Z,97408.78
2022-08-22T10:19:46.777Z,97300.75
2022-08-22T10:22:35.135Z,97419.06
2022-08-22T10:25:14.302Z,97414.78
2022-08-22T10:27:42.318Z,97418.25
2022-08-22T10:30:13.193Z,97408.78
2022-08-22T10:32:59.131Z,97408.78
2022-08-22T10:35:50.221Z,97399.38
2022-08-22T10:38:25.133Z,97398.47
2022-08-22T10:40:56.298Z,97409.66
2022-08-22T10:43:31.348Z,97397.59
2022-08-22T10:46:03.555Z,97399.34
2022-08-22T10:48:32.603Z,97410.53
2022-08-22T10:51:16.479Z,97404.50
2022-08-22T10:53:53.932Z,97411.34
2022-08-22T10:57:02.606Z,97404.47
2022-08-22T10:59:33.253Z,97402.72
2022-08-22T11:02:42.263Z,97406.19
2022-08-22T11:05:21.053Z,97406.16
2022-08-22T11:07:55.376Z,97413.06
2022-08-22T11:10:40.047Z,97409.59
2022-08-22T11:13:27.908Z,97405.31
2022-08-22T11:16:04.706Z,97409.59
2022-08-22T11:19:01.811Z,97415.63
2022-08-22T11:21:45.992Z,97407.88
2022-08-22T11:24:35.647Z,97401.00
2022-08-22T11:27:39.949Z,97406.13
2022-08-22T11:30:10.853Z,97395.75
2022-08-22T11:33:08.609Z,97407.88
2022-08-22T11:35:56.134Z,97394.13
2022-08-22T11:38:37.892Z,97401.84
2022-08-22T11:41:36.668Z,97385.53
2022-08-22T11:44:20.736Z,97387.28
2022-08-22T11:46:49.142Z,97370.84
2022-08-22T11:49:33.943Z,97380.41
2022-08-22T11:52:26.663Z,97387.28
2022-08-22T11:55:22.612Z,97376.13
2022-08-22T11:57:51.391Z,97370.91
2022-08-22T12:00:23.768Z,97372.59
2022-08-22T12:03:15.540Z,97370.94
2022-08-22T12:06:00.324Z,97374.41
2022-08-22T12:08:29.762Z,97362.38
2022-08-22T12:10:59.949Z,97353.75
2022-08-22T12:13:43.138Z,97354.66
2022-08-22T12:16:33.837Z,97357.25
2022-08-22T12:19:19.704Z,97354.66
2022-08-22T12:22:17.044Z,97353.81
2022-08-22T12:25:02.739Z,97356.41
2022-08-22T12:27:39.928Z,97343.53
2022-08-22T12:30:21.631Z,97348.63
2022-08-22T12:32:57.178Z,97346.13
2022-08-22T12:35:32.522Z,97343.50
2022-08-22T12:38:26.645Z,97346.13
2022-08-22T12:41:10.840Z,97347.78
2022-08-22T12:44:05.917Z,97339.19
2022-08-22T12:47:09.136Z,97331.47
2022-08-22T12:50:13.589Z,97335.78
2022-08-22T12:53:18.145Z,97338.34
2022-08-22T12:56:01.672Z,97324.63
2022-08-22T12:59:00.864Z,97330.63
2022-08-22T13:01:40.147Z,97332.34
2022-08-22T13:04:19.179Z,97315.94
2022-08-22T13:07:09.799Z,97331.44
2022-08-22T13:09:40.896Z,97308.28
2022-08-22T13:12:20.076Z,97313.47
2022-08-22T13:14:49.735Z,97315.16
2022-08-22T13:17:24.349Z,97309.97
2022-08-22T13:20:00.147Z,97310.00
2022-08-22T13:22:29.042Z,97296.19
2022-08-22T13:25:06.083Z,97315.19
2022-08-22T13:27:50.947Z,97311.75
2022-08-22T13:30:34.913Z,97311.75
2022-08-22T13:33:09.863Z,97304.91
2022-08-22T13:35:53.805Z,97306.59
2022-08-22T13:38:27.045Z,97319.47
2022-08-22T13:40:55.491Z,97297.09
2022-08-22T13:43:34.445Z,97300.50
2022-08-22T13:46:03.246Z,97321.16
2022-08-22T13:48:46.742Z,97321.19
2022-08-22T13:51:51.706Z,97318.59
2022-08-22T13:54:45.513Z,97322.06
2022-08-22T13:57:28.433Z,97316.91
2022-08-22T14:00:28.455Z,97309.19
2022-08-22T14:03:08.012Z,97320.38
2022-08-22T14:05:40.497Z,97310.88
2022-08-22T14:08:45.245Z,97308.38
2022-08-22T14:11:20.588Z,97300.50
2022-08-22T14:13:53.488Z,97311.75
2022-08-22T14:16:24.340Z,97309.19
2022-08-22T14:18:55.398Z,97310.88
2022-08-22T14:21:29.383Z,97302.31
2022-08-22T14:24:18.987Z,97305.75
2022-08-22T14:27:13.431Z,97308.28
2022-08-22T14:29:50.826Z,97306.56
2022-08-22T14:32:26.687Z,97311.75
2022-08-22T14:35:05.485Z,97294.53
2022-08-22T14:37:40.099Z,97302.38
2022-08-22T14:40:07.952Z,97300.66
2022-08-22T14:42:48.095Z,97294.66
2022-08-22T14:45:22.376Z,97302.38
2022-08-22T14:47:55.510Z,97296.31
2022-08-22T14:50:39.748Z,97298.06
2022-08-22T14:53:22.130Z,97299.81
2022-08-22T14:56:03.661Z,97299.81
2022-08-22T14:58:36.236Z,97286.84
2022-08-22T15:01:10.392Z,97293.81
2022-08-22T15:03:38.732Z,97289.53
2022-08-22T15:06:12.784Z,97290.38
2022-08-22T15:08:46.412Z,97298.97
2022-08-22T15:11:22.004Z,97304.13
2022-08-22T15:14:00.016Z,97301.53
2022-08-22T15:16:44.664Z,97304.16
2022-08-22T15:19:47.026Z,97317.88
2022-08-22T15:22:27.722Z,97311.84
2022-08-22T15:25:06.596Z,97310.16
2022-08-22T15:27:36.204Z,97312.72
2022-08-22T15:30:07.481Z,97309.28
2022-08-22T15:32:48.846Z,97308.44
2022-08-22T15:35:38.926Z,97311.84
2022-08-22T15:38:28.077Z,97309.28
2022-08-22T15:40:55.044Z,97279.88
2022-08-22T15:43:23.873Z,97306.72
2022-08-22T15:45:53.051Z,97320.47
2022-08-22T15:48:31.185Z,97280.75
2022-08-22T15:51:04.845Z,97311.03
2022-08-22T15:53:44.892Z,97334.19
2022-08-22T15:56:11.327Z,97322.19
2022-08-22T15:58:40.421Z,97292.88
2022-08-22T16:01:19.141Z,97306.75
2022-08-22T16:04:03.971Z,97317.91
2022-08-22T16:06:56.560Z,97313.59
2022-08-22T16:09:38.273Z,97305.88
2022-08-22T16:12:08.823Z,97311.91
2022-08-22T16:14:35.540Z,97312.78
2022-08-22T16:17:08.203Z,97316.19
2022-08-22T16:19:35.056Z,97310.19
2022-08-22T16:22:03.648Z,97304.19
2022-08-22T16:24:32.187Z,97307.53
2022-08-22T16:27:05.817Z,97313.59
2022-08-22T16:29:41.311Z,97277.31
2022-08-22T16:32:11.207Z,97310.19
2022-08-22T16:34:37.646Z,97310.19
2022-08-22T16:37:18.078Z,97318.78
2022-08-22T16:39:49.937Z,97294.59
2022-08-22T16:42:18.297Z,97318.75
2022-08-22T16:45:05.319Z,97323.06
2022-08-22T16:47:40.710Z,97327.34
2022-08-22T16:50:16.584Z,97312.78
2022-08-22T16:52:59.598Z,97324.78
2022-08-22T16:55:28.847Z,97321.31
2022-08-22T16:58:40.226Z,97320.50
2022-08-22T17:01:33.773Z,97324.78
2022-08-22T17:04:35.644Z,97326.47
2022-08-22T17:07:05.981Z,97318.75
2022-08-22T17:10:18.088Z,97324.78
2022-08-22T17:13:15.085Z,97317.00
2022-08-22T17:16:19.161Z,97329.91
2022-08-22T17:18:45.671Z,97330.78
2022-08-22T17:21:17.064Z,97330.78
2022-08-22T17:23:59.348Z,97330.78
2022-08-22T17:26:31.538Z,97335.94
2022-08-22T17:29:00.880Z,97330.78
2022-08-22T17:31:36.886Z,97338.50
2022-08-22T17:34:18.594Z,97287.59
2022-08-22T17:36:55.868Z,97321.19
2022-08-22T17:39:25.252Z,97340.19
2022-08-22T17:41:57.755Z,97348.78
2022-08-22T17:44:42.109Z,97335.06
2022-08-22T17:47:14.913Z,97342.78
2022-08-22T17:49:41.347Z,97340.19
2022-08-22T17:52:15.919Z,97345.34
2022-08-22T17:55:09.028Z,97347.03
2022-08-22T17:57:44.221Z,97360.78
2022-08-22T18:00:19.216Z,97354.75
2022-08-22T18:02:51.175Z,97351.34
2022-08-22T18:05:20.405Z,97355.63
2022-08-22T18:08:05.409Z,97341.84
2022-08-22T18:10:50.468Z,97358.19
2022-08-22T18:13:46.496Z,97351.31
2022-08-22T18:16:32.259Z,97365.91
2022-08-22T18:19:09.882Z,97331.34
2022-08-22T18:21:44.048Z,97324.47
2022-08-22T18:24:10.474Z,97365.03
2022-08-22T18:26:39.217Z,97354.72
2022-08-22T18:29:11.365Z,97352.09
2022-08-22T18:31:59.120Z,97365.88
2022-08-22T18:34:47.389Z,97365.00
2022-08-22T18:37:33.040Z,97367.59
2022-08-22T18:40:07.169Z,97156.81
2022-08-22T18:42:37.144Z,97391.63
2022-08-22T18:45:03.912Z,97377.88
2022-08-22T18:47:35.129Z,97379.59
2022-08-22T18:50:23.810Z,97354.47
2022-08-22T18:52:53.443Z,97365.66
2022-08-22T18:56:04.081Z,97392.47
2022-08-22T18:59:05.573Z,97403.59
2022-08-22T19:01:50.911Z,97392.47
2022-08-22T19:04:53.824Z,97388.94
2022-08-22T19:07:48.179Z,97401.00
2022-08-22T19:10:37.357Z,97406.16
2022-08-22T19:13:09.728Z,97410.44
2022-08-22T19:16:08.305Z,97400.06
2022-08-22T19:18:52.876Z,97414.75
2022-08-22T19:21:53.998Z,97419.88
2022-08-22T19:24:20.441Z,97425.91
2022-08-22T19:26:48.151Z,97421.59
2022-08-22T19:29:17.539Z,97425.03
2022-08-22T19:31:48.307Z,97425.78
2022-08-22T19:34:22.034Z,97433.63
2022-08-22T19:37:11.493Z,97433.63
2022-08-22T19:40:09.219Z,97441.34
2022-08-22T19:42:37.065Z,97418.00
2022-08-22T19:45:08.323Z,97436.19
2022-08-22T19:47:41.113Z,97404.13
2022-08-22T19:50:16.866Z,97441.34
2022-08-22T19:52:56.627Z,97446.47
2022-08-22T19:55:38.092Z,97450.75
2022-08-22T19:58:30.254Z,97443.91
2022-08-22T20:01:05.097Z,97451.63
2022-08-22T20:03:55.197Z,97442.19
2022-08-22T20:06:51.680Z,97445.53
2022-08-22T20:09:39.873Z,97451.59
2022-08-22T20:12:15.789Z,97453.31
2022-08-22T20:14:43.400Z,97457.59
2022-08-22T20:17:11.860Z,97445.59
2022-08-22T20:22:35.101Z,97450.75
2022-08-22T20:25:04.796Z,97434.34
2022-08-22T20:27:34.621Z,97443.88
2022-08-22T20:30:19.581Z,97412.78
2022-08-22T20:32:53.795Z,97460.09
2022-08-22T20:35:22.991Z,97448.16
2022-08-22T20:38:07.364Z,97444.72
2022-08-22T20:40:59.587Z,97437.88
2022-08-22T20:43:45.437Z,97429.19
2022-08-22T20:46:34.558Z,97443.00
2022-08-22T20:49:01.678Z,97436.16
2022-08-22T20:51:32.429Z,97437.00
2022-08-22T20:54:01.707Z,97443.88
2022-08-22T20:56:53.343Z,97431.00
2022-08-22T20:59:38.809Z,97431.84
2022-08-22T21:02:32.244Z,97416.28
2022-08-22T21:05:23.086Z,97431.00
2022-08-22T21:08:12.670Z,97424.94
2022-08-22T21:10:58.337Z,97436.16
2022-08-22T21:13:35.339Z,97418.84
2022-08-22T21:16:11.745Z,97435.25
2022-08-22T21:18:45.917Z,97431.78
2022-08-22T21:21:17.448Z,97426.63
2022-08-22T21:24:00.038Z,97411.09
2022-08-22T21:26:31.740Z,97429.22
2022-08-22T21:29:07.828Z,97430.09
2022-08-22T21:31:49.021Z,97428.38
2022-08-22T21:34:20.722Z,97412.78
2022-08-22T21:36:47.291Z,97430.97
2022-08-22T21:39:22.227Z,97425.81
2022-08-22T21:41:51.629Z,97424.94
2022-08-22T21:44:28.274Z,97426.63
2022-08-22T21:46:55.083Z,97425.81
2022-08-22T21:49:26.173Z,97422.34
2022-08-22T21:51:52.715Z,97426.63
2022-08-22T21:54:22.205Z,97425.81
2022-08-22T21:56:49.859Z,97425.81
2022-08-22T21:59:50.622Z,97429.19
2022-08-22T22:02:37.369Z,97429.19
2022-08-22T22:05:11.336Z,97418.09
2022-08-22T22:07:39.536Z,97420.66
2022-08-22T22:10:07.422Z,97418.06
2022-08-22T22:12:33.999Z,97426.63
2022-08-22T22:15:00.535Z,97426.59
2022-08-22T22:17:27.099Z,97430.94
2022-08-22T22:19:54.247Z,97436.09
2022-08-22T22:22:21.855Z,97435.22
2022-08-22T22:24:48.512Z,97436.91
2022-08-22T22:27:17.158Z,97440.34
2022-08-22T22:29:43.809Z,97436.91
2022-08-22T22:32:10.400Z,97447.22
2022-08-22T22:34:39.061Z,97441.22
2022-08-22T22:37:09.448Z,97449.75
2022-08-22T22:39:36.284Z,97437.75
2022-08-22T22:42:03.464Z,97447.22
2022-08-22T22:44:30.041Z,97454.09
2022-08-22T22:47:02.117Z,97450.63
2022-08-22T22:49:29.814Z,97436.88
2022-08-22T22:51:56.399Z,97446.38
2022-08-22T22:54:27.219Z,97442.00
2022-08-22T22:56:54.154Z,97445.50
2022-08-22T22:59:24.764Z,97440.34
2022-08-22T23:05:39.746Z,97433.44
2022-08-22T23:08:06.276Z,97441.19
2022-08-22T23:10:32.957Z,97433.50
2022-08-22T23:12:59.572Z,97439.41
2022-08-22T23:15:26.284Z,97444.63
2022-08-22T23:17:52.800Z,97448.91
2022-08-22T23:20:19.532Z,97455.75
2022-08-22T23:22:46.186Z,97453.19
2022-08-22T23:25:12.732Z,97450.63
2022-08-22T23:27:39.422Z,97443.69
2022-08-22T23:30:08.566Z,97439.41
2022-08-22T23:32:36.783Z,97448.03
2022-08-22T23:35:03.467Z,97450.63
2022-08-22T23:37:30.004Z,97453.16
2022-08-22T23:39:56.605Z,97451.50
2022-08-22T23:42:23.213Z,97435.09
2022-08-22T23:44:49.816Z,97453.19
2022-08-22T23:47:16.416Z,97457.47
2022-08-22T23:49:43.139Z,97459.22
2022-08-22T23:52:10.584Z,97455.75
2022-08-22T23:54:37.202Z,97453.19
2022-08-22T23:57:04.424Z,97415.25
2022-08-22T23:59:38.961Z,97443.75
